Time;durP1;ratioP1;P1;durP2;ratioP2;P2;SDS_P1;SDS_P2;PMS_P1;PMS_P2;Temp;Humidity;BMP_temperature;BMP_pressure;BME280_temperature;BME280_humidity;BME280_pressure;Samples;Min_cycle;Max_cycle;Signal;HPM_P1;HPM_P2
2023/10/18 00:02:54;;;;;;;7.53;4.93;;;5.10;99.90;;;;;;4999315;28;20208;-65
2023/10/18 00:05:22;;;;;;;7.50;5.27;;;5.00;99.90;;;;;;5006373;28;20184;-65
2023/10/18 00:07:51;;;;;;;8.20;5.20;;;4.90;99.90;;;;;;4992956;28;20652;-61
2023/10/18 00:10:20;;;;;;;8.53;5.40;;;4.90;99.90;;;;;;4988663;28;20232;-61
2023/10/18 00:12:48;;;;;;;10.50;5.40;;;4.90;99.90;;;;;;5006553;28;20711;-62
2023/10/18 00:15:16;;;;;;;7.53;5.20;;;4.90;99.90;;;;;;5008350;28;20211;-63
2023/10/18 00:17:44;;;;;;;8.37;5.37;;;4.80;99.90;;;;;;4987376;28;20734;-64
2023/10/18 00:20:23;;;;;;;9.93;6.10;;;4.80;99.90;;;;;;4976703;28;20687;-63
2023/10/18 00:22:50;;;;;;;8.23;4.87;;;4.80;99.90;;;;;;4994676;28;20376;-63
2023/10/18 00:25:20;;;;;;;8.43;5.13;;;4.70;99.90;;;;;;4989373;28;20197;-63
2023/10/18 00:27:47;;;;;;;6.83;4.77;;;4.60;99.90;;;;;;5010740;28;20205;-64
2023/10/18 00:30:18;;;;;;;14.10;5.90;;;4.60;99.90;;;;;;5008105;28;20227;-63
2023/10/18 00:32:46;;;;;;;5.83;4.87;;;4.60;99.90;;;;;;5005603;28;20213;-64
2023/10/18 00:35:18;;;;;;;10.90;5.13;;;4.60;99.90;;;;;;5004423;28;20817;-64
2023/10/18 00:37:54;;;;;;;10.90;5.60;;;4.60;99.90;;;;;;5008661;28;20200;-64
2023/10/18 00:43:20;;;;;;;7.57;4.60;;;4.40;99.90;;;;;;4986372;28;20194;-66
2023/10/18 00:45:50;;;;;;;9.77;5.60;;;4.50;99.90;;;;;;5002081;28;20267;-66
2023/10/18 00:48:24;;;;;;;9.57;6.37;;;4.50;99.90;;;;;;4975444;28;20259;-65
2023/10/18 00:50:53;;;;;;;8.37;4.90;;;4.60;99.90;;;;;;5004266;28;20201;-65
2023/10/18 00:53:22;;;;;;;9.80;6.40;;;4.60;99.90;;;;;;4991634;28;20208;-61
2023/10/18 00:55:53;;;;;;;9.23;5.27;;;4.70;99.90;;;;;;5005582;28;20535;-61
2023/10/18 00:58:22;;;;;;;9.47;5.87;;;4.70;99.90;;;;;;5010208;28;20323;-61
2023/10/18 01:00:51;;;;;;;14.97;6.53;;;4.60;99.90;;;;;;4993494;28;20867;-61
2023/10/18 01:03:28;;;;;;;12.30;6.57;;;4.60;99.90;;;;;;5007146;28;20695;-61
2023/10/18 01:05:59;;;;;;;10.17;6.17;;;4.60;99.90;;;;;;5010028;28;20192;-62
2023/10/18 01:08:32;;;;;;;11.73;6.00;;;4.80;99.90;;;;;;5009736;28;20220;-62
2023/10/18 01:11:04;;;;;;;9.57;5.27;;;4.80;99.90;;;;;;5004154;28;20661;-62
2023/10/18 01:13:34;;;;;;;9.90;5.13;;;4.80;99.90;;;;;;5011271;28;20224;-66
2023/10/18 01:16:08;;;;;;;8.50;5.97;;;4.80;99.90;;;;;;5008573;28;20272;-67
2023/10/18 01:18:35;;;;;;;8.30;5.87;;;4.70;99.90;;;;;;5008762;28;20201;-61
2023/10/18 01:21:13;;;;;;;8.47;5.60;;;4.70;99.90;;;;;;4993331;28;20224;-63
2023/10/18 01:23:49;;;;;;;9.33;6.50;;;4.70;99.90;;;;;;4990022;28;20197;-64
2023/10/18 01:26:26;;;;;;;10.90;5.93;;;4.70;99.90;;;;;;5001940;28;20296;-63
2023/10/18 01:28:55;;;;;;;8.43;5.23;;;4.60;99.90;;;;;;4990572;28;20196;-67
2023/10/18 01:31:23;;;;;;;9.67;5.90;;;4.50;99.90;;;;;;5002697;28;20197;-67
2023/10/18 01:33:51;;;;;;;11.30;5.87;;;4.40;99.90;;;;;;4971917;28;20225;-67
2023/10/18 01:36:20;;;;;;;9.23;5.23;;;4.40;99.90;;;;;;5004088;28;20248;-67
2023/10/18 01:38:52;;;;;;;10.13;5.73;;;4.30;99.90;;;;;;4987351;28;20655;-68
2023/10/18 01:41:27;;;;;;;8.93;5.30;;;4.30;99.90;;;;;;5004673;28;20677;-67
2023/10/18 01:44:07;;;;;;;9.50;5.43;;;4.30;99.90;;;;;;4989577;28;20633;-68
2023/10/18 01:46:48;;;;;;;7.67;5.40;;;4.30;99.90;;;;;;5001394;28;20217;-67
2023/10/18 01:49:24;;;;;;;8.10;6.10;;;4.20;99.90;;;;;;4988672;28;20244;-67
2023/10/18 01:51:54;;;;;;;12.77;6.10;;;4.20;99.90;;;;;;5004982;28;20250;-66
2023/10/18 01:54:25;;;;;;;13.17;6.37;;;4.10;99.90;;;;;;4972615;28;20235;-69
2023/10/18 01:56:53;;;;;;;11.07;5.60;;;4.20;99.90;;;;;;4989038;28;20668;-66
2023/10/18 01:59:27;;;;;;;11.20;6.13;;;4.20;99.90;;;;;;4985712;28;20204;-66
2023/10/18 02:05:56;;;;;;;8.90;5.30;;;4.30;99.90;;;;;;5006890;28;20234;-65
2023/10/18 02:08:23;;;;;;;14.50;5.67;;;4.30;99.90;;;;;;5003054;28;20668;-63
2023/10/18 02:10:50;;;;;;;7.20;5.17;;;4.10;99.90;;;;;;5005767;28;20224;-63
2023/10/18 02:13:18;;;;;;;10.90;5.53;;;4.10;99.90;;;;;;4984534;28;20347;-63
2023/10/18 02:15:48;;;;;;;8.97;6.10;;;4.00;99.90;;;;;;4988142;28;20228;-63
2023/10/18 02:18:15;;;;;;;7.63;4.87;;;3.90;99.90;;;;;;4989751;28;20537;-62
2023/10/18 02:20:50;;;;;;;9.63;5.83;;;3.90;99.90;;;;;;5004062;28;20649;-67
2023/10/18 02:23:25;;;;;;;10.00;5.60;;;4.00;99.90;;;;;;4981731;28;20300;-63
2023/10/18 02:25:53;;;;;;;12.17;7.13;;;3.90;99.90;;;;;;4999291;28;20669;-64
2023/10/18 02:28:22;;;;;;;7.50;5.30;;;3.90;99.90;;;;;;5006086;28;20312;-65
2023/10/18 02:30:55;;;;;;;9.80;6.57;;;3.80;99.90;;;;;;4968687;28;20243;-66
2023/10/18 02:33:38;;;;;;;9.70;5.97;;;3.80;99.90;;;;;;4992625;28;20756;-65
2023/10/18 02:36:10;;;;;;;8.77;6.17;;;3.80;99.90;;;;;;5007016;28;20235;-68
2023/10/18 02:38:41;;;;;;;10.70;5.80;;;3.80;99.90;;;;;;5005618;28;20255;-66
2023/10/18 02:41:21;;;;;;;10.23;6.27;;;3.90;99.90;;;;;;4987709;28;20564;-65
2023/10/18 02:43:52;;;;;;;8.37;5.37;;;3.90;99.90;;;;;;5007260;28;20204;-66
2023/10/18 02:46:24;;;;;;;9.87;5.67;;;4.00;99.90;;;;;;5002633;28;20715;-66
2023/10/18 02:48:56;;;;;;;9.37;6.40;;;3.90;99.90;;;;;;5002810;28;20229;-66
2023/10/18 02:51:28;;;;;;;7.77;5.33;;;3.90;99.90;;;;;;5000369;28;20235;-66
2023/10/18 02:54:16;;;;;;;12.77;6.70;;;3.90;99.90;;;;;;5001321;28;20217;-66
2023/10/18 02:56:53;;;;;;;7.17;5.07;;;4.00;99.90;;;;;;5000816;28;20201;-66
2023/10/18 02:59:22;;;;;;;8.27;5.77;;;4.10;99.90;;;;;;5004555;28;20191;-66
2023/10/18 03:01:57;;;;;;;12.87;6.37;;;4.10;99.90;;;;;;5005450;28;20287;-65
2023/10/18 03:04:26;;;;;;;8.47;5.63;;;4.00;99.90;;;;;;5000247;28;20216;-66
2023/10/18 03:06:54;;;;;;;9.70;5.50;;;3.90;99.90;;;;;;5001773;28;20201;-64
2023/10/18 03:09:38;;;;;;;13.17;6.40;;;3.90;99.90;;;;;;5006022;28;20224;-65
2023/10/18 03:12:14;;;;;;;9.23;5.33;;;3.80;99.90;;;;;;5003140;28;20199;-68
2023/10/18 03:14:54;;;;;;;9.87;6.33;;;3.80;99.90;;;;;;5005134;28;20661;-68
2023/10/18 03:17:23;;;;;;;11.90;7.37;;;3.80;99.90;;;;;;5000148;28;20235;-63
2023/10/18 03:19:54;;;;;;;12.63;8.40;;;3.80;99.90;;;;;;4985969;28;20201;-66
2023/10/18 03:22:31;;;;;;;8.40;5.90;;;3.80;99.90;;;;;;4989992;28;20200;-64
2023/10/18 03:24:59;;;;;;;12.43;6.97;;;3.80;99.90;;;;;;5003247;28;20216;-64
2023/10/18 03:27:31;;;;;;;9.37;6.13;;;3.90;99.90;;;;;;4999064;28;20637;-64
2023/10/18 03:29:59;;;;;;;13.00;6.77;;;3.80;99.90;;;;;;5003650;28;20189;-63
2023/10/18 03:32:26;;;;;;;8.70;6.13;;;3.80;99.90;;;;;;5002067;28;20220;-63
2023/10/18 03:34:54;;;;;;;10.73;6.50;;;3.70;99.90;;;;;;5005831;28;20193;-63
2023/10/18 03:37:21;;;;;;;11.73;7.10;;;3.70;99.90;;;;;;4985508;28;20252;-63
2023/10/18 03:39:50;;;;;;;12.30;7.17;;;3.60;99.90;;;;;;5000467;28;20194;-71
2023/10/18 03:42:32;;;;;;;11.10;7.43;;;3.60;99.90;;;;;;4985136;28;20275;-63
2023/10/18 03:45:10;;;;;;;13.87;8.47;;;3.70;99.90;;;;;;5005765;28;20688;-63
2023/10/18 03:47:38;;;;;;;10.60;7.43;;;3.70;99.90;;;;;;4999996;28;20185;-64
2023/10/18 03:50:15;;;;;;;9.03;6.53;;;3.60;99.90;;;;;;4981140;28;20252;-64
2023/10/18 03:52:45;;;;;;;11.50;7.10;;;3.60;99.90;;;;;;4983929;28;20283;-65
2023/10/18 03:55:18;;;;;;;10.27;6.13;;;3.60;1.00;;;;;;5000654;28;20692;-64
2023/10/18 03:57:45;;;;;;;12.83;7.27;;;3.70;99.90;;;;;;4984985;28;20197;-65
2023/10/18 04:00:28;;;;;;;11.97;5.87;;;3.60;99.90;;;;;;4987569;28;20185;-63
2023/10/18 04:02:56;;;;;;;10.93;6.23;;;3.70;1.00;;;;;;5001083;28;20618;-65
2023/10/18 04:08:19;;;;;;;11.50;6.60;;;3.70;99.90;;;;;;5000138;28;20196;-63
2023/10/18 04:10:58;;;;;;;11.93;6.83;;;3.80;1.00;;;;;;5004335;28;20728;-62
2023/10/18 04:13:31;;;;;;;10.37;6.53;;;3.80;1.00;;;;;;5004440;28;20290;-62
2023/10/18 04:16:09;;;;;;;12.00;6.63;;;3.80;1.00;;;;;;5004813;28;20224;-63
2023/10/18 04:18:41;;;;;;;14.00;8.33;;;3.70;1.00;;;;;;5001241;28;20194;-62
2023/10/18 04:21:15;;;;;;;13.40;7.83;;;3.70;1.00;;;;;;4999225;28;20225;-68
2023/10/18 04:23:49;;;;;;;11.87;6.70;;;3.60;1.00;;;;;;4997853;28;20773;-62
2023/10/18 04:26:19;;;;;;;11.00;6.83;;;3.60;1.00;;;;;;4998120;28;20216;-67
2023/10/18 04:28:48;;;;;;;10.73;6.60;;;3.90;1.00;;;;;;5003632;28;20209;-67
2023/10/18 04:31:21;;;;;;;9.93;6.53;;;4.00;1.00;;;;;;5004674;28;20276;-64
2023/10/18 04:33:53;;;;;;;20.83;7.00;;;4.00;99.90;;;;;;5002538;28;20369;-69
2023/10/18 04:36:20;;;;;;;15.73;6.77;;;4.00;1.00;;;;;;4999675;28;20586;-62
2023/10/18 04:38:56;;;;;;;12.33;7.27;;;4.00;99.90;;;;;;4984309;28;20782;-62
2023/10/18 04:41:23;;;;;;;16.93;7.90;;;4.00;99.90;;;;;;4987125;28;20693;-62
2023/10/18 04:46:30;;;;;;;11.17;7.07;;;4.00;1.00;;;;;;5006632;28;20708;-62
2023/10/18 04:51:43;;;;;;;13.60;8.83;;;4.20;99.90;;;;;;5004434;28;20896;-59
2023/10/18 04:54:15;;;;;;;13.57;7.57;;;4.10;99.90;;;;;;4990982;28;20298;-59
2023/10/18 04:56:46;;;;;;;13.30;7.37;;;4.00;1.00;;;;;;5007854;28;20197;-60
2023/10/18 05:04:32;;;;;;;21.17;8.63;;;3.90;1.00;;;;;;5005937;28;20629;-62
2023/10/18 05:07:15;;;;;;;12.00;7.33;;;3.90;99.90;;;;;;4993605;28;20300;-62
2023/10/18 05:09:44;;;;;;;12.20;7.17;;;3.90;99.90;;;;;;5011805;28;20737;-62
2023/10/18 05:17:50;;;;;;;13.83;6.87;;;4.00;99.90;;;;;;5010425;28;20247;-62
2023/10/18 05:22:59;;;;;;;13.03;8.27;;;4.00;99.90;;;;;;4993827;28;20717;-62
2023/10/18 05:25:30;;;;;;;13.57;7.17;;;4.10;99.90;;;;;;5004928;28;20715;-63
2023/10/18 05:27:59;;;;;;;12.63;7.17;;;4.20;99.90;;;;;;4992222;28;20288;-63
2023/10/18 05:41:28;;;;;;;12.60;7.63;;;4.20;99.90;;;;;;5010173;28;20673;-63
2023/10/18 05:43:59;;;;;;;9.50;6.50;;;4.10;99.90;;;;;;5006621;28;20204;-64
2023/10/18 05:46:33;;;;;;;13.00;7.40;;;4.20;99.90;;;;;;5005628;28;20213;-63
2023/10/18 05:49:01;;;;;;;12.87;7.10;;;4.20;99.90;;;;;;4991289;28;20244;-63
2023/10/18 05:51:38;;;;;;;11.43;6.50;;;4.20;99.90;;;;;;5005561;28;20189;-63
2023/10/18 05:54:06;;;;;;;9.83;6.50;;;4.10;99.90;;;;;;4972240;28;20212;-63
2023/10/18 05:56:33;;;;;;;10.47;6.47;;;4.20;99.90;;;;;;5010814;28;20649;-63
2023/10/18 06:01:58;;;;;;;12.37;7.87;;;4.30;99.90;;;;;;5005243;28;20197;-59
2023/10/18 06:04:37;;;;;;;10.03;6.17;;;4.30;99.90;;;;;;5008731;28;20584;-59
2023/10/18 06:07:09;;;;;;;12.97;7.70;;;4.30;99.90;;;;;;5008355;28;20224;-63
2023/10/18 06:09:46;;;;;;;13.20;6.87;;;4.30;99.90;;;;;;5004813;28;20193;-62
2023/10/18 06:12:22;;;;;;;13.83;7.13;;;4.30;99.90;;;;;;4991995;28;20649;-63
2023/10/18 06:14:53;;;;;;;12.97;6.70;;;4.30;99.90;;;;;;5003004;28;20213;-62
2023/10/18 06:17:26;;;;;;;12.67;6.80;;;4.50;99.90;;;;;;4992027;28;20231;-64
2023/10/18 06:19:56;;;;;;;12.37;6.60;;;4.50;99.90;;;;;;5006970;28;20199;-62
2023/10/18 06:22:38;;;;;;;10.83;6.53;;;4.50;99.90;;;;;;5006728;28;20193;-63
2023/10/18 06:25:09;;;;;;;13.17;6.53;;;4.60;99.90;;;;;;4992258;28;20197;-62
2023/10/18 06:27:39;;;;;;;7.20;5.53;;;4.60;99.90;;;;;;5001050;28;20629;-64
2023/10/18 06:30:17;;;;;;;12.93;6.93;;;4.60;99.90;;;;;;5008658;28;20197;-64
2023/10/18 06:32:45;;;;;;;9.47;6.57;;;4.70;99.90;;;;;;5009786;28;20283;-61
2023/10/18 06:35:19;;;;;;;10.03;6.00;;;4.70;99.90;;;;;;5006683;28;20213;-62
2023/10/18 06:37:46;;;;;;;10.80;6.83;;;4.80;99.90;;;;;;5009964;28;20216;-63
2023/10/18 06:40:32;;;;;;;10.17;5.60;;;5.00;99.90;;;;;;5007635;28;20193;-63
2023/10/18 06:43:01;;;;;;;9.50;6.37;;;5.10;99.90;;;;;;4992085;28;20232;-62
2023/10/18 06:45:33;;;;;;;8.70;6.20;;;5.10;99.90;;;;;;5007104;28;20640;-63
2023/10/18 06:48:03;;;;;;;11.20;6.67;;;5.20;99.90;;;;;;5009322;28;20296;-64
2023/10/18 06:50:32;;;;;;;12.27;6.63;;;5.30;99.90;;;;;;5008514;28;20923;-64
2023/10/18 06:52:59;;;;;;;9.47;6.20;;;5.50;99.90;;;;;;5008955;28;20319;-63
2023/10/18 06:55:35;;;;;;;13.33;6.67;;;5.50;99.90;;;;;;4990973;28;20665;-64
2023/10/18 06:58:11;;;;;;;9.57;6.07;;;5.70;99.90;;;;;;4990184;28;20565;-63
2023/10/18 07:00:47;;;;;;;10.90;6.37;;;5.80;99.90;;;;;;4998731;28;20288;-64
2023/10/18 07:03:17;;;;;;;8.23;5.83;;;5.80;99.90;;;;;;4990180;28;20211;-63
2023/10/18 07:05:49;;;;;;;10.37;5.73;;;5.90;99.90;;;;;;5005324;28;20288;-63
2023/10/18 07:08:19;;;;;;;8.80;6.33;;;6.00;99.90;;;;;;4991121;28;20197;-63
2023/10/18 07:10:54;;;;;;;9.83;6.00;;;6.10;99.90;;;;;;5009148;28;20759;-64
2023/10/18 07:13:42;;;;;;;9.07;5.47;;;6.20;99.90;;;;;;5007052;28;20712;-64
2023/10/18 07:16:15;;;;;;;9.33;5.53;;;6.30;99.90;;;;;;5003332;28;20319;-63
2023/10/18 07:18:44;;;;;;;10.70;6.23;;;6.30;99.90;;;;;;4985635;28;20674;-63
2023/10/18 07:21:18;;;;;;;9.03;5.63;;;6.50;99.90;;;;;;5002106;28;20235;-64
2023/10/18 07:23:53;;;;;;;8.43;5.20;;;6.50;99.90;;;;;;5003423;28;20684;-63
2023/10/18 07:26:22;;;;;;;6.93;5.20;;;6.60;99.90;;;;;;5002289;28;20193;-63
2023/10/18 07:28:49;;;;;;;7.20;5.17;;;6.70;99.90;;;;;;5004345;28;20343;-64
2023/10/18 07:31:23;;;;;;;7.10;5.37;;;6.70;99.90;;;;;;5003352;28;20196;-64
2023/10/18 07:33:51;;;;;;;7.60;5.57;;;6.80;99.90;;;;;;4999919;28;20211;-63
2023/10/18 07:36:18;;;;;;;10.57;5.33;;;7.00;99.90;;;;;;5007082;28;20203;-64
2023/10/18 07:38:50;;;;;;;5.70;4.10;;;7.00;99.90;;;;;;5001585;28;20831;-64
2023/10/18 07:41:26;;;;;;;9.97;5.17;;;7.10;99.90;;;;;;5002800;28;20189;-63
2023/10/18 07:43:55;;;;;;;6.03;4.90;;;7.10;99.90;;;;;;5004189;28;20196;-64
2023/10/18 07:46:27;;;;;;;7.23;4.50;;;7.20;99.90;;;;;;4967374;28;20236;-64
2023/10/18 07:49:04;;;;;;;6.97;5.10;;;7.20;99.90;;;;;;5001881;28;20208;-64
2023/10/18 07:51:34;;;;;;;6.00;5.07;;;7.40;99.90;;;;;;4999409;28;20201;-64
2023/10/18 07:54:02;;;;;;;10.37;4.70;;;7.50;99.90;;;;;;5004591;28;21949;-64
2023/10/18 07:56:31;;;;;;;9.10;4.97;;;7.50;99.90;;;;;;5002812;28;20193;-68
2023/10/18 08:01:51;;;;;;;6.87;4.40;;;7.70;99.90;;;;;;4997675;28;20208;-64
2023/10/18 08:04:22;;;;;;;10.47;5.00;;;7.80;99.90;;;;;;5006763;28;20193;-64
2023/10/18 08:06:50;;;;;;;7.00;4.23;;;7.80;99.90;;;;;;4968510;28;20212;-64
2023/10/18 08:09:28;;;;;;;7.07;4.80;;;7.90;99.90;;;;;;5004247;28;20189;-64
2023/10/18 08:11:57;;;;;;;6.57;4.33;;;7.90;99.90;;;;;;5007061;28;20192;-64
2023/10/18 08:14:24;;;;;;;6.83;4.77;;;8.00;99.90;;;;;;5002606;28;20209;-70
2023/10/18 08:16:58;;;;;;;7.00;5.17;;;7.90;99.90;;;;;;5005457;28;20239;-59
2023/10/18 08:19:25;;;;;;;6.47;4.60;;;8.10;99.90;;;;;;5002730;28;20188;-62
2023/10/18 08:24:35;;;;;;;6.50;4.57;;;8.30;99.90;;;;;;5001912;28;20254;-61
2023/10/18 08:27:10;;;;;;;6.50;4.60;;;8.30;99.90;;;;;;4999093;28;20197;-65
2023/10/18 08:29:38;;;;;;;5.30;3.87;;;8.50;99.90;;;;;;5007133;28;20197;-65
2023/10/18 08:32:29;;;;;;;7.67;4.73;;;8.60;99.90;;;;;;5006043;28;20211;-65
2023/10/18 08:35:05;;;;;;;6.80;4.73;;;8.80;99.90;;;;;;5008033;28;20815;-66
2023/10/18 08:37:32;;;;;;;6.53;4.47;;;8.80;99.90;;;;;;5008335;28;20357;-61
2023/10/18 08:39:59;;;;;;;5.27;4.17;;;8.80;99.90;;;;;;5007611;28;20190;-61
2023/10/18 08:42:39;;;;;;;8.87;4.87;;;8.80;99.90;;;;;;4976584;28;20197;-61
2023/10/18 08:45:09;;;;;;;6.20;4.70;;;8.80;99.90;;;;;;5007720;28;20229;-63
2023/10/18 08:47:39;;;;;;;5.47;4.17;;;8.90;99.90;;;;;;5008302;28;20197;-62
2023/10/18 08:50:10;;;;;;;5.80;4.53;;;9.20;99.90;;;;;;5006157;28;20201;-60
2023/10/18 08:52:39;;;;;;;7.83;4.27;;;9.40;99.90;;;;;;4991441;28;20193;-60
2023/10/18 08:55:19;;;;;;;5.37;4.07;;;9.60;99.90;;;;;;4994282;28;20217;-60
2023/10/18 08:57:48;;;;;;;7.27;4.20;;;9.80;99.90;;;;;;5006563;28;20199;-60
2023/10/18 09:03:07;;;;;;;13.17;4.80;;;10.00;99.90;;;;;;4998171;28;20232;-60
2023/10/18 09:05:35;;;;;;;5.70;4.17;;;9.90;99.90;;;;;;4972541;28;20525;-60
2023/10/18 09:08:03;;;;;;;6.70;4.57;;;10.00;99.90;;;;;;5010593;28;20545;-61
2023/10/18 09:16:01;;;;;;;5.60;4.03;;;10.20;99.90;;;;;;5003332;28;20260;-60
2023/10/18 09:18:31;;;;;;;8.17;5.17;;;10.40;99.90;;;;;;5003359;28;20656;-61
2023/10/18 09:23:43;;;;;;;5.87;4.43;;;10.80;99.90;;;;;;5008519;28;20196;-60
2023/10/18 09:26:18;;;;;;;8.50;5.23;;;11.00;99.90;;;;;;5004319;28;20581;-64
2023/10/18 09:28:46;;;;;;;7.73;4.83;;;11.50;99.90;;;;;;5006511;28;20279;-61
2023/10/18 09:31:18;;;;;;;6.27;4.37;;;12.30;99.90;;;;;;5006657;28;20252;-61
2023/10/18 09:33:49;;;;;;;7.60;5.10;;;13.10;99.90;;;;;;4982990;28;20189;-72
2023/10/18 09:36:19;;;;;;;5.47;4.70;;;13.80;99.90;;;;;;5007707;28;20229;-61
2023/10/18 09:38:48;;;;;;;6.47;4.30;;;14.20;99.90;;;;;;5005854;28;20939;-65
2023/10/18 09:41:19;;;;;;;8.23;4.00;;;14.90;99.90;;;;;;5006198;28;20596;-64
2023/10/18 09:43:49;;;;;;;6.85;4.68;;;16.40;99.90;;;;;;5008842;28;20193;-64
2023/10/18 09:46:16;;;;;;;6.65;5.22;;;17.40;99.90;;;;;;5004384;28;20241;-64
2023/10/18 09:48:46;;;;;;;4.88;4.35;;;19.20;99.90;;;;;;5001450;28;20197;-67
2023/10/18 09:51:15;;;;;;;4.70;3.78;;;19.80;99.90;;;;;;5005699;28;20272;-67
2023/10/18 09:53:55;;;;;;;5.13;4.40;;;19.40;99.90;;;;;;4988830;28;20571;-67
2023/10/18 09:56:24;;;;;;;6.18;4.40;;;19.90;99.90;;;;;;4991130;28;20678;-67
2023/10/18 09:59:04;;;;;;;5.60;4.60;;;20.70;99.90;;;;;;5005727;28;20433;-67
2023/10/18 10:04:14;;;;;;;6.10;4.32;;;22.20;99.90;;;;;;5004156;28;20189;-67
2023/10/18 10:06:46;;;;;;;6.95;5.20;;;20.20;99.90;;;;;;4988563;28;20194;-66
2023/10/18 10:09:14;;;;;;;7.20;4.75;;;18.90;99.90;;;;;;5005314;28;20185;-66
2023/10/18 10:11:46;;;;;;;6.13;4.80;;;19.40;99.90;;;;;;5007003;28;20612;-66
2023/10/18 10:14:17;;;;;;;5.22;4.65;;;19.50;99.90;;;;;;4990034;28;20197;-66
2023/10/18 10:16:52;;;;;;;6.45;4.50;;;19.50;99.90;;;;;;4990485;28;20228;-63
2023/10/18 10:19:25;;;;;;;5.00;4.50;;;18.80;99.90;;;;;;4991324;28;20216;-64
2023/10/18 10:21:54;;;;;;;7.22;4.30;;;20.10;99.90;;;;;;5007556;28;20267;-62
2023/10/18 10:24:42;;;;;;;5.13;4.35;;;20.40;99.90;;;;;;5007151;28;20236;-60
2023/10/18 10:32:58;;;;;;;7.30;3.97;;;18.50;99.90;;;;;;5008917;28;20247;-61
2023/10/18 10:35:32;;;;;;;8.77;5.72;;;18.20;99.90;;;;;;5008483;28;20216;-63
2023/10/18 10:38:06;;;;;;;8.77;4.82;;;17.20;99.90;;;;;;4987918;28;20193;-61
2023/10/18 10:43:01;;;;;;;6.28;4.07;;;16.20;99.90;;;;;;5002244;28;20190;-61
2023/10/18 10:45:30;;;;;;;5.15;4.25;;;16.30;99.90;;;;;;5003225;28;20805;-61
2023/10/18 10:48:15;;;;;;;5.38;4.60;;;16.50;99.90;;;;;;5005930;28;20220;-65
2023/10/18 10:50:53;;;;;;;4.47;4.05;;;16.40;99.90;;;;;;5006708;28;20314;-68
2023/10/18 10:53:44;;;;;;;5.95;4.07;;;16.50;99.90;;;;;;4992843;28;20212;-63
2023/10/18 10:56:19;;;;;;;4.82;3.70;;;16.00;99.90;;;;;;4991865;28;20761;-63
2023/10/18 10:59:03;;;;;;;4.28;3.88;;;15.30;99.90;;;;;;5008301;28;20687;-64
2023/10/18 11:04:28;;;;;;;5.70;4.22;;;17.00;99.90;;;;;;5007900;28;20201;-64
2023/10/18 11:07:00;;;;;;;9.05;3.90;;;17.10;99.90;;;;;;5003520;28;20653;-64
2023/10/18 11:09:32;;;;;;;4.57;4.07;;;16.80;99.90;;;;;;5008908;28;20196;-62
2023/10/18 11:12:17;;;;;;;5.53;4.35;;;16.70;99.90;;;;;;4992161;28;20259;-67
2023/10/18 11:14:52;;;;;;;5.75;4.03;;;16.20;99.90;;;;;;5009081;28;20672;-63
2023/10/18 11:17:23;;;;;;;7.07;4.28;;;16.20;99.90;;;;;;5003806;28;20264;-64
2023/10/18 11:19:55;;;;;;;4.55;3.97;;;16.50;99.90;;;;;;5007326;28;20193;-65
2023/10/18 11:22:29;;;;;;;5.47;3.85;;;17.20;99.90;;;;;;5004301;28;20634;-63
2023/10/18 11:24:59;;;;;;;4.60;4.10;;;16.50;99.90;;;;;;4984689;28;20199;-67
2023/10/18 11:27:34;;;;;;;4.40;4.00;;;15.50;99.90;;;;;;5004522;28;20197;-67
2023/10/18 11:32:50;;;;;;;4.40;4.00;;;14.10;99.90;;;;;;5007879;28;20200;-67
2023/10/18 11:35:26;;;;;;;4.18;3.78;;;13.90;99.90;;;;;;4986486;28;20208;-64
2023/10/18 11:37:55;;;;;;;4.50;4.10;;;13.80;99.90;;;;;;4987620;28;20200;-63
2023/10/18 11:40:22;;;;;;;5.17;3.67;;;13.80;99.90;;;;;;5004853;28;20185;-63
2023/10/18 11:43:05;;;;;;;5.27;4.20;;;13.70;99.90;;;;;;5004603;28;20190;-65
2023/10/18 11:45:32;;;;;;;6.83;3.83;;;13.80;99.90;;;;;;5002530;28;20299;-68
2023/10/18 11:48:02;;;;;;;5.07;3.70;;;14.00;99.90;;;;;;4996761;28;20243;-67
2023/10/18 11:50:39;;;;;;;7.00;3.87;;;13.80;99.90;;;;;;5007255;28;20212;-69
2023/10/18 11:53:12;;;;;;;4.37;3.97;;;14.00;99.90;;;;;;4988871;28;20279;-66
2023/10/18 11:55:58;;;;;;;4.23;3.70;;;14.20;99.90;;;;;;5003254;28;20600;-68
2023/10/18 11:58:33;;;;;;;5.87;3.60;;;13.90;99.90;;;;;;5004869;28;20538;-64
2023/10/18 12:01:05;;;;;;;6.57;3.97;;;14.10;99.90;;;;;;4986442;28;20201;-70
2023/10/18 12:03:38;;;;;;;4.50;3.70;;;14.30;99.90;;;;;;5020838;28;20189;-64
2023/10/18 12:06:11;;;;;;;5.23;3.90;;;14.10;99.90;;;;;;5012053;28;20200;-64
2023/10/18 12:09:25;;;;;;;4.90;3.90;;;14.30;99.90;;;;;;4990523;28;20225;-62
2023/10/18 12:11:37;;;;;;;3.93;3.50;;;14.20;99.90;;;;;;5007496;28;20201;-62
2023/10/18 12:14:07;;;;;;;5.07;3.93;;;14.00;99.90;;;;;;5013963;28;20189;-61
2023/10/18 12:16:34;;;;;;;4.93;4.03;;;13.80;99.90;;;;;;4994607;28;20263;-73
2023/10/18 12:19:03;;;;;;;6.73;3.87;;;13.90;99.90;;;;;;4994376;28;20672;-64
2023/10/18 12:21:30;;;;;;;3.53;3.23;;;14.10;99.90;;;;;;4991690;28;20204;-63
2023/10/18 12:23:57;;;;;;;4.37;3.97;;;14.10;99.90;;;;;;5010709;28;20192;-61
2023/10/18 12:26:25;;;;;;;5.88;3.60;;;14.20;99.90;;;;;;5008554;28;20614;-62
2023/10/18 12:28:52;;;;;;;4.37;3.97;;;14.30;99.90;;;;;;5014068;28;20201;-62
2023/10/18 12:31:28;;;;;;;5.77;3.33;;;14.10;99.90;;;;;;5007175;28;20243;-64
2023/10/18 12:33:59;;;;;;;4.13;3.83;;;14.20;99.90;;;;;;5013197;28;20299;-63
2023/10/18 12:36:33;;;;;;;5.65;4.07;;;14.20;99.90;;;;;;5012883;28;20700;-63
2023/10/18 12:39:00;;;;;;;4.17;3.77;;;14.50;99.90;;;;;;5014098;28;20188;-64
2023/10/18 12:41:36;;;;;;;4.03;3.70;;;14.60;99.90;;;;;;5015154;28;20181;-62
2023/10/18 12:44:04;;;;;;;4.27;3.87;;;14.50;99.90;;;;;;5011221;28;20189;-59
2023/10/18 12:46:35;;;;;;;4.13;3.70;;;14.50;99.90;;;;;;4989098;28;20240;-62
2023/10/18 12:49:05;;;;;;;5.07;3.90;;;14.70;99.90;;;;;;5013003;28;20280;-64
2023/10/18 12:51:34;;;;;;;4.75;4.20;;;15.00;99.90;;;;;;4993996;28;20558;-66
2023/10/18 12:54:09;;;;;;;4.60;3.97;;;15.10;99.90;;;;;;4992008;28;20215;-64
2023/10/18 12:56:40;;;;;;;3.85;3.55;;;14.60;99.90;;;;;;4996019;28;20583;-66
2023/10/18 13:04:07;;;;;;;5.67;3.73;;;14.70;99.90;;;;;;4995960;28;20192;-63
2023/10/18 13:06:44;;;;;;;4.43;4.03;;;14.50;99.90;;;;;;5010546;28;20200;-65
2023/10/18 13:09:15;;;;;;;5.82;3.88;;;14.50;99.90;;;;;;4981763;28;20204;-60
2023/10/18 13:14:31;;;;;;;5.47;3.90;;;14.20;99.90;;;;;;5008916;28;20250;-60
2023/10/18 13:17:04;;;;;;;5.60;4.37;;;14.10;99.90;;;;;;5002696;28;20257;-60
2023/10/18 13:19:31;;;;;;;5.33;4.20;;;14.10;99.90;;;;;;5008103;28;20653;-62
2023/10/18 13:21:59;;;;;;;4.57;3.90;;;13.90;99.90;;;;;;5002822;28;20286;-59
2023/10/18 13:24:29;;;;;;;4.23;3.63;;;13.90;99.90;;;;;;4999295;28;20189;-62
2023/10/18 13:26:59;;;;;;;4.73;3.93;;;13.90;99.90;;;;;;5009297;28;20205;-61
2023/10/18 13:31:58;;;;;;;4.53;3.40;;;13.90;99.90;;;;;;5007514;28;20201;-60
2023/10/18 13:34:39;;;;;;;4.17;3.77;;;13.90;99.90;;;;;;4993714;28;20553;-61
2023/10/18 13:37:10;;;;;;;7.43;4.60;;;13.80;99.90;;;;;;5011111;28;20255;-60
2023/10/18 13:39:42;;;;;;;4.00;3.60;;;13.80;99.90;;;;;;4976564;28;22677;-60
2023/10/18 13:42:11;;;;;;;6.90;3.53;;;13.80;99.90;;;;;;5006263;28;20275;-61
2023/10/18 13:44:41;;;;;;;5.03;3.87;;;13.70;99.90;;;;;;4992544;28;20193;-60
2023/10/18 13:47:11;;;;;;;4.87;4.10;;;13.70;99.90;;;;;;4986499;28;20213;-62
2023/10/18 13:49:41;;;;;;;5.37;3.60;;;13.60;99.90;;;;;;5001010;28;20185;-59
2023/10/18 13:52:11;;;;;;;3.77;3.47;;;13.60;99.90;;;;;;4991361;28;20193;-61
2023/10/18 13:54:38;;;;;;;3.67;3.37;;;13.60;99.90;;;;;;4988385;28;23013;-59
2023/10/18 13:57:05;;;;;;;4.03;3.50;;;13.70;99.90;;;;;;5005219;28;20223;-58
2023/10/18 13:59:34;;;;;;;9.67;5.20;;;13.60;99.90;;;;;;4986608;28;20224;-58
2023/10/18 14:02:01;;;;;;;9.30;6.80;;;13.60;99.90;;;;;;4985982;28;20205;-62
2023/10/18 14:04:32;;;;;;;3.87;3.53;;;13.50;99.90;;;;;;5002211;28;20738;-61
2023/10/18 14:07:00;;;;;;;3.87;3.30;;;13.50;99.90;;;;;;5001792;28;20197;-66
2023/10/18 14:09:33;;;;;;;4.27;3.27;;;13.50;99.90;;;;;;4989341;28;20201;-64
2023/10/18 14:12:01;;;;;;;4.03;3.10;;;13.40;99.90;;;;;;4997471;28;20196;-65
2023/10/18 14:14:31;;;;;;;4.37;3.93;;;13.40;99.90;;;;;;5007359;28;20212;-63
2023/10/18 14:16:59;;;;;;;6.17;4.30;;;13.40;99.90;;;;;;4989049;28;20310;-61
2023/10/18 14:19:29;;;;;;;5.77;3.67;;;13.40;99.90;;;;;;5008462;28;20641;-61
2023/10/18 14:21:57;;;;;;;5.93;5.33;;;13.40;99.90;;;;;;4985384;28;20653;-59
2023/10/18 14:24:28;;;;;;;6.53;5.23;;;13.50;99.90;;;;;;4991826;28;20262;-61
2023/10/18 14:26:56;;;;;;;3.97;3.60;;;13.40;99.90;;;;;;4987255;28;20211;-59
2023/10/18 14:29:25;;;;;;;3.77;3.43;;;13.30;99.90;;;;;;4986444;28;20526;-59
2023/10/18 14:31:52;;;;;;;4.87;3.87;;;13.30;99.90;;;;;;5004865;28;20286;-58
2023/10/18 14:34:22;;;;;;;4.63;3.53;;;13.30;99.90;;;;;;4987922;28;20200;-60
2023/10/18 14:36:50;;;;;;;4.00;3.60;;;13.10;99.90;;;;;;5004214;28;20213;-59
2023/10/18 14:39:22;;;;;;;4.07;3.67;;;13.10;99.90;;;;;;4960369;28;20733;-58
2023/10/18 14:42:06;;;;;;;4.90;3.83;;;13.10;99.90;;;;;;4953515;28;20686;-59